createdAt,value
2022-12-16T00:05:30.442Z,76.47
2022-12-16T00:10:58.230Z,76.63
2022-12-16T00:16:22.472Z,76.88
2022-12-16T00:21:46.140Z,77.26
2022-12-16T00:27:10.282Z,77.54
2022-12-16T00:32:35.195Z,77.63
2022-12-16T00:37:58.887Z,77.69
2022-12-16T00:43:22.783Z,77.75
2022-12-16T00:48:46.766Z,77.68
2022-12-16T00:54:10.511Z,77.48
2022-12-16T00:59:35.206Z,77.65
2022-12-16T01:04:59.977Z,77.41
2022-12-16T01:10:24.347Z,77.56
2022-12-16T01:15:47.966Z,77.53
2022-12-16T01:21:11.821Z,77.59
2022-12-16T01:26:35.241Z,77.64
2022-12-16T01:31:59.592Z,77.51
2022-12-16T01:37:24.260Z,77.82
2022-12-16T01:42:47.589Z,78.01
2022-12-16T01:48:17.526Z,78.16
2022-12-16T01:53:41.158Z,78.28
2022-12-16T01:59:04.971Z,78.64
2022-12-16T02:04:29.782Z,79.15
2022-12-16T02:09:54.598Z,79.68
2022-12-16T02:15:44.434Z,79.70
2022-12-16T02:21:28.263Z,79.46
2022-12-16T02:26:52.240Z,79.65
2022-12-16T02:32:42.272Z,79.89
2022-12-16T02:38:06.506Z,80.03
2022-12-16T02:43:49.446Z,79.89
2022-12-16T02:49:16.133Z,80.20
2022-12-16T02:54:39.662Z,80.41
2022-12-16T03:00:07.718Z,80.34
2022-12-16T03:05:34.208Z,80.34
2022-12-16T03:11:00.029Z,80.37
2022-12-16T03:16:25.355Z,80.71
2022-12-16T03:21:54.465Z,80.70
2022-12-16T03:27:20.947Z,80.45
2022-12-16T03:32:47.595Z,80.77
2022-12-16T03:38:11.851Z,80.86
2022-12-16T03:43:36.607Z,80.97
2022-12-16T03:49:00.740Z,80.68
2022-12-16T03:54:24.972Z,80.76
2022-12-16T03:59:48.191Z,80.94
2022-12-16T04:05:12.114Z,80.88
2022-12-16T04:10:53.129Z,80.86
2022-12-16T04:16:33.938Z,80.74
2022-12-16T04:22:14.987Z,80.66
2022-12-16T04:27:38.485Z,80.62
2022-12-16T04:33:23.869Z,80.39
2022-12-16T04:39:13.390Z,80.45
2022-12-16T04:44:53.688Z,80.28
2022-12-16T04:50:35.191Z,80.34
2022-12-16T04:56:17.145Z,80.44
2022-12-16T05:01:57.578Z,80.32
2022-12-16T05:07:38.918Z,80.26
2022-12-16T05:13:19.631Z,80.34
2022-12-16T05:19:00.192Z,79.86
2022-12-16T05:24:40.999Z,79.94
2022-12-16T05:30:23.491Z,80.02
2022-12-16T05:36:04.035Z,79.63
2022-12-16T05:41:44.620Z,79.98
2022-12-16T05:47:25.306Z,80.24
2022-12-16T05:53:12.441Z,80.08
2022-12-16T05:58:53.852Z,80.00
2022-12-16T06:04:35.417Z,80.15
2022-12-16T06:10:20.373Z,80.06
2022-12-16T06:16:06.644Z,79.79
2022-12-16T06:21:49.263Z,79.92
2022-12-16T06:27:30.568Z,79.70
2022-12-16T06:33:12.017Z,79.73
2022-12-16T06:38:54.199Z,79.91
2022-12-16T06:44:34.906Z,79.97
2022-12-16T06:50:15.442Z,79.75
2022-12-16T06:55:57.690Z,79.59
2022-12-16T07:01:40.364Z,79.87
2022-12-16T07:07:21.676Z,79.76
2022-12-16T07:13:04.351Z,80.02
2022-12-16T07:18:45.775Z,79.75
2022-12-16T07:24:41.222Z,79.61
2022-12-16T07:30:22.132Z,79.52
2022-12-16T07:36:03.270Z,79.25
2022-12-16T07:41:44.602Z,79.21
2022-12-16T07:47:25.402Z,79.06
2022-12-16T07:53:07.717Z,79.27
2022-12-16T07:58:49.661Z,78.95
2022-12-16T08:04:30.147Z,79.50
2022-12-16T08:10:11.809Z,79.24
2022-12-16T08:15:52.980Z,79.09
2022-12-16T08:21:34.343Z,79.09
2022-12-16T08:27:15.145Z,79.19
2022-12-16T08:32:59.728Z,78.99
2022-12-16T08:38:44.346Z,78.55
2022-12-16T08:44:25.855Z,78.24
2022-12-16T08:50:07.955Z,78.30
2022-12-16T08:55:51.800Z,78.30
2022-12-16T09:01:32.800Z,78.34
2022-12-16T09:07:13.421Z,77.93
2022-12-16T09:12:54.145Z,77.57
2022-12-16T09:18:35.933Z,77.13
2022-12-16T09:24:16.677Z,76.53
2022-12-16T09:29:58.083Z,76.37
2022-12-16T09:35:38.761Z,75.89
2022-12-16T09:41:42.905Z,75.94
2022-12-16T09:47:26.114Z,75.61
2022-12-16T09:53:09.100Z,74.69
2022-12-16T09:58:51.668Z,74.89
2022-12-16T10:04:33.364Z,74.86
2022-12-16T10:10:23.776Z,75.25
2022-12-16T10:16:13.245Z,74.89
2022-12-16T10:22:14.886Z,74.53
2022-12-16T10:27:55.944Z,73.92
2022-12-16T10:33:36.678Z,73.13
2022-12-16T10:39:22.307Z,72.87
2022-12-16T10:45:15.612Z,72.75
2022-12-16T10:50:56.749Z,72.60
2022-12-16T10:56:43.686Z,72.00
2022-12-16T11:02:29.972Z,71.29
2022-12-16T11:08:11.848Z,70.49
2022-12-16T11:13:54.105Z,70.01
2022-12-16T11:19:41.992Z,71.41
2022-12-16T11:25:23.554Z,70.59
2022-12-16T11:31:04.568Z,70.65
2022-12-16T11:36:45.593Z,70.34
2022-12-16T11:42:23.689Z,70.52
2022-12-16T11:48:28.537Z,71.04
2022-12-16T11:54:10.782Z,70.79
2022-12-16T11:59:56.635Z,70.68
2022-12-16T12:05:37.689Z,70.10
2022-12-16T12:11:27.226Z,70.11
2022-12-16T12:17:12.173Z,70.62
2022-12-16T12:22:54.625Z,70.75
2022-12-16T12:28:35.945Z,71.01
2022-12-16T12:34:21.783Z,71.11
2022-12-16T12:40:04.554Z,71.15
2022-12-16T12:45:54.738Z,70.80
2022-12-16T12:51:45.161Z,70.85
2022-12-16T12:57:27.526Z,71.15
2022-12-16T13:03:23.000Z,72.11
2022-12-16T13:09:14.243Z,72.32
2022-12-16T13:14:51.613Z,72.20
2022-12-16T13:20:49.999Z,72.06
2022-12-16T13:26:31.271Z,71.95
2022-12-16T13:32:25.082Z,72.62
2022-12-16T13:38:15.359Z,72.37
2022-12-16T13:44:02.087Z,73.29
2022-12-16T13:49:54.864Z,73.08
2022-12-16T13:55:36.423Z,73.25
2022-12-16T14:01:21.415Z,73.40
2022-12-16T14:07:03.886Z,73.47
2022-12-16T14:13:05.566Z,74.05
2022-12-16T14:18:57.388Z,73.80
2022-12-16T14:24:40.194Z,73.99
2022-12-16T14:30:21.994Z,74.04
2022-12-16T14:36:07.579Z,74.30
2022-12-16T14:41:49.265Z,74.58
2022-12-16T14:47:36.943Z,74.79
2022-12-16T14:53:47.474Z,74.84
2022-12-16T14:59:27.991Z,75.10
2022-12-16T15:05:09.199Z,75.25
2022-12-16T15:10:50.873Z,75.69
2022-12-16T15:16:36.788Z,75.78
2022-12-16T15:22:19.514Z,76.23
2022-12-16T15:28:00.163Z,76.40
2022-12-16T15:33:42.018Z,76.62
2022-12-16T15:39:28.444Z,76.40
2022-12-16T15:45:11.135Z,76.59
2022-12-16T15:50:52.967Z,76.64
2022-12-16T15:56:57.556Z,76.35
2022-12-16T16:02:45.129Z,76.24
2022-12-16T16:08:28.973Z,76.31
2022-12-16T16:14:14.441Z,76.14
2022-12-16T16:20:00.135Z,76.33
2022-12-16T16:25:46.388Z,76.51
2022-12-16T16:31:32.041Z,76.14
2022-12-16T16:37:15.086Z,76.55
2022-12-16T16:42:56.547Z,76.74
2022-12-16T16:48:46.238Z,76.75
2022-12-16T16:54:41.867Z,77.05
2022-12-16T17:00:35.793Z,77.56
2022-12-16T17:06:34.306Z,77.62
2022-12-16T17:12:56.563Z,77.49
2022-12-16T17:18:51.964Z,77.81
2022-12-16T17:24:40.743Z,77.86
2022-12-16T17:36:43.511Z,77.46
2022-12-16T17:42:27.076Z,77.19
2022-12-16T17:48:10.561Z,77.14
2022-12-16T17:54:00.114Z,77.11
2022-12-16T17:59:44.324Z,77.04
2022-12-16T18:05:34.692Z,77.26
2022-12-16T18:11:20.018Z,77.25
2022-12-16T18:17:01.170Z,76.73
2022-12-16T18:22:41.656Z,77.01
2022-12-16T18:28:22.347Z,77.34
2022-12-16T18:34:03.253Z,78.24
2022-12-16T18:39:44.853Z,78.14
2022-12-16T18:45:26.923Z,78.48
2022-12-16T18:51:14.522Z,78.20
2022-12-16T18:56:55.791Z,78.39
2022-12-16T19:02:36.738Z,78.48
2022-12-16T19:08:17.752Z,78.37
2022-12-16T19:13:58.817Z,77.72
2022-12-16T19:19:40.377Z,77.87
2022-12-16T19:25:21.160Z,77.93
2022-12-16T19:31:02.782Z,77.83
2022-12-16T19:36:46.987Z,77.59
2022-12-16T19:42:34.229Z,77.64
2022-12-16T19:48:22.041Z,77.59
2022-12-16T19:54:04.091Z,77.81
2022-12-16T19:59:45.141Z,77.51
2022-12-16T20:05:26.574Z,77.63
2022-12-16T20:11:07.150Z,77.70
2022-12-16T20:16:49.036Z,78.03
2022-12-16T20:22:42.524Z,78.20
2022-12-16T20:34:25.547Z,78.24
2022-12-16T20:40:06.170Z,78.57
2022-12-16T20:45:46.526Z,78.74
2022-12-16T20:51:28.359Z,78.07
2022-12-16T20:57:12.718Z,78.03
2022-12-16T21:03:09.501Z,78.01
2022-12-16T21:08:50.481Z,78.08
2022-12-16T21:14:31.032Z,78.27
2022-12-16T21:20:11.354Z,78.10
2022-12-16T21:25:52.899Z,78.09
2022-12-16T21:31:37.247Z,78.46
2022-12-16T21:37:18.217Z,78.49
2022-12-16T21:42:59.023Z,78.42
2022-12-16T21:48:39.715Z,78.61
2022-12-16T21:54:20.722Z,78.73
2022-12-16T22:00:01.813Z,79.00
2022-12-16T22:05:51.676Z,78.94
2022-12-16T22:11:33.417Z,79.18
2022-12-16T22:17:14.209Z,79.40
2022-12-16T22:22:55.416Z,79.40
2022-12-16T22:28:37.166Z,79.28
2022-12-16T22:34:18.999Z,79.10
2022-12-16T22:40:00.977Z,79.27
2022-12-16T22:45:42.403Z,79.43
2022-12-16T22:51:23.078Z,78.93
2022-12-16T22:57:03.628Z,78.86
2022-12-16T23:02:44.757Z,79.14
2022-12-16T23:08:26.153Z,79.24
2022-12-16T23:14:08.098Z,79.06
2022-12-16T23:19:49.668Z,79.37
2022-12-16T23:25:30.476Z,79.48
2022-12-16T23:31:11.565Z,79.74
2022-12-16T23:36:52.037Z,79.70
2022-12-16T23:42:34.235Z,79.27
2022-12-16T23:48:22.373Z,79.33
2022-12-16T23:54:04.030Z,79.15
2022-12-16T23:59:44.915Z,79.15
